Shorkot Weather



Shorkot's Current Weather

Temprature 33.94o clear sky

clear sky

Rain: 0 %

Min Temprature33.94o
Max Temprature33.94o
Humidity16
Wind Speed3.57 m/h
Sun Rise06:15:37
Sun Set17:37:57
Current Time: 18-Oct-2019 16:23:31
Lat/Lon: 30.83, 72.08




Shorkot's Geo Location



Shorkot's Weather Forecast

Time Overall Temp Min Temp Max Temp Humidity Wind Speed Rain
18-Oct-2019 (Fri)
17:00:00 clear sky 32.300 32.300 33.940 16 3.57 m/h 0 %
20:00:00 light rain 23.000 23.000 24.230 42 6.32 m/h 56 %
23:00:00 light rain 22.330 22.330 23.148 48 3.48 m/h 6 %
19-Oct-2019 (Sat)
02:00:00 clear sky 21.770 21.770 22.178 49 2.75 m/h 0 %
05:00:00 few clouds 22.723 22.723 22.723 45 3.78 m/h 0 %
08:00:00 clear sky 24.901 24.901 24.901 41 1.85 m/h 0 %
11:00:00 clear sky 30.840 30.840 30.840 26 3.07 m/h 0 %
14:00:00 clear sky 33.916 33.916 33.916 18 2.45 m/h 0 %
17:00:00 clear sky 32.262 32.262 32.262 20 3.25 m/h 0 %
20:00:00 clear sky 28.558 28.558 28.558 26 2.65 m/h 0 %
23:00:00 clear sky 26.587 26.587 26.587 29 2.89 m/h 0 %
20-Oct-2019 (Sun)
02:00:00 clear sky 24.367 24.367 24.367 32 2.64 m/h 0 %
05:00:00 clear sky 23.194 23.194 23.194 34 1.85 m/h 0 %
08:00:00 broken clouds 26.322 26.322 26.322 27 1.84 m/h 0 %
11:00:00 broken clouds 33.080 33.080 33.080 18 1.4 m/h 0 %
14:00:00 few clouds 34.872 34.872 34.872 15 2.71 m/h 0 %
17:00:00 few clouds 32.758 32.758 32.758 16 3.47 m/h 0 %
20:00:00 clear sky 28.372 28.372 28.372 21 2.16 m/h 0 %
23:00:00 clear sky 25.927 25.927 25.927 26 2.38 m/h 0 %
21-Oct-2019 (Mon)
02:00:00 clear sky 24.110 24.110 24.110 31 2.43 m/h 0 %
05:00:00 clear sky 23.171 23.171 23.171 30 3.08 m/h 0 %
08:00:00 clear sky 25.489 25.489 25.489 25 2.15 m/h 0 %
11:00:00 clear sky 32.507 32.507 32.507 16 2.28 m/h 0 %
14:00:00 clear sky 35.395 35.395 35.395 12 2.72 m/h 0 %
17:00:00 clear sky 32.674 32.674 32.674 14 2.84 m/h 0 %
20:00:00 clear sky 28.414 28.414 28.414 18 1.7 m/h 0 %
23:00:00 clear sky 25.450 25.450 25.450 22 1.95 m/h 0 %
22-Oct-2019 (Tue)
02:00:00 clear sky 24.726 24.726 24.726 23 1.79 m/h 0 %
05:00:00 clear sky 22.569 22.569 22.569 26 2.61 m/h 0 %
08:00:00 clear sky 24.672 24.672 24.672 24 2.2 m/h 0 %
11:00:00 clear sky 32.789 32.789 32.789 14 0.99 m/h 0 %
14:00:00 clear sky 35.229 35.229 35.229 11 2.54 m/h 0 %
17:00:00 clear sky 32.532 32.532 32.532 13 3.18 m/h 0 %
20:00:00 clear sky 27.650 27.650 27.650 17 0.28 m/h 0 %
23:00:00 clear sky 26.389 26.389 26.389 18 2.71 m/h 0 %
23-Oct-2019 (Wed)
02:00:00 few clouds 23.696 23.696 23.696 22 2.38 m/h 0 %
05:00:00 clear sky 22.217 22.217 22.217 24 0.6 m/h 0 %
08:00:00 clear sky 25.389 25.389 25.389 20 1.3 m/h 0 %
11:00:00 clear sky 31.605 31.605 31.605 13 1.89 m/h 0 %
14:00:00 clear sky 34.319 34.319 34.319 11 3.57 m/h 0 %

Famous Cities (61)